Time;durP1;ratioP1;P1;durP2;ratioP2;P2;SDS_P1;SDS_P2;PMS_P1;PMS_P2;Temp;Humidity;BMP_temperature;BMP_pressure;BME280_temperature;BME280_humidity;BME280_pressure;Samples;Min_cycle;Max_cycle;Signal;HPM_P1;HPM_P2
2021/04/20 00:01:17;;;;;;;5.20;4.80;;;6.80;99.90;;;;;;5083164;28;20181;-76
2021/04/20 00:03:43;;;;;;;5.00;4.20;;;6.80;99.90;;;;;;5084120;28;20190;-76
2021/04/20 00:06:09;;;;;;;4.87;4.47;;;6.80;99.90;;;;;;5082129;28;20188;-75
2021/04/20 00:08:39;;;;;;;9.67;4.77;;;6.80;99.90;;;;;;5082305;28;20322;-75
2021/04/20 00:11:05;;;;;;;8.77;5.37;;;6.70;99.90;;;;;;5082600;28;20516;-76
2021/04/20 00:13:31;;;;;;;6.13;5.53;;;6.70;99.90;;;;;;5082529;28;20504;-75
2021/04/20 00:15:57;;;;;;;8.63;5.10;;;6.50;99.90;;;;;;5081965;28;20462;-75
2021/04/20 00:18:22;;;;;;;6.10;5.40;;;6.50;99.90;;;;;;5082847;28;20435;-76
2021/04/20 00:20:48;;;;;;;7.07;5.00;;;6.50;99.90;;;;;;5082322;28;20567;-76
2021/04/20 00:23:14;;;;;;;9.90;5.10;;;6.40;99.90;;;;;;5081596;28;20212;-75
2021/04/20 00:25:40;;;;;;;8.10;4.60;;;6.40;99.90;;;;;;5082524;28;20594;-75
2021/04/20 00:28:05;;;;;;;13.83;4.87;;;6.40;99.90;;;;;;5083676;28;20418;-76
2021/04/20 00:30:32;;;;;;;11.17;5.43;;;6.40;99.90;;;;;;5080383;28;20180;-76
2021/04/20 00:32:57;;;;;;;8.73;5.67;;;6.40;99.90;;;;;;5080376;28;20437;-76
2021/04/20 00:35:23;;;;;;;8.63;5.30;;;6.30;99.90;;;;;;5079235;28;20757;-75
2021/04/20 00:37:49;;;;;;;5.70;5.10;;;6.30;99.90;;;;;;5081433;28;20305;-75
2021/04/20 00:40:16;;;;;;;7.73;5.03;;;6.30;99.90;;;;;;5080687;28;20789;-76
2021/04/20 00:42:53;;;;;;;6.70;4.90;;;6.30;99.90;;;;;;5081758;28;20245;-76
2021/04/20 00:45:23;;;;;;;7.33;5.03;;;6.20;99.90;;;;;;5082920;28;20425;-76
2021/04/20 00:47:48;;;;;;;7.60;5.63;;;6.20;99.90;;;;;;5083343;28;20570;-75
2021/04/20 00:50:16;;;;;;;8.20;5.60;;;6.10;99.90;;;;;;5081617;28;21065;-75
2021/04/20 00:52:42;;;;;;;7.83;4.50;;;6.10;99.90;;;;;;5080690;28;20198;-75
2021/04/20 00:55:09;;;;;;;6.50;5.03;;;6.00;99.90;;;;;;5083062;28;20430;-75
2021/04/20 00:57:35;;;;;;;6.37;4.80;;;6.00;99.90;;;;;;5081284;28;20207;-75
2021/04/20 01:00:01;;;;;;;7.97;5.50;;;5.90;99.90;;;;;;5081974;28;20421;-75
2021/04/20 01:02:27;;;;;;;5.90;5.30;;;5.90;99.90;;;;;;5082191;28;20643;-75
2021/04/20 01:04:53;;;;;;;7.17;4.90;;;5.80;99.90;;;;;;5080049;28;20910;-75
2021/04/20 01:07:19;;;;;;;8.47;4.90;;;5.80;99.90;;;;;;5079512;28;20521;-75
2021/04/20 01:09:48;;;;;;;9.50;6.50;;;5.80;99.90;;;;;;5081141;28;21052;-75
2021/04/20 01:12:14;;;;;;;6.13;5.43;;;5.70;99.90;;;;;;5062405;28;20427;-75
2021/04/20 01:14:40;;;;;;;9.47;6.70;;;5.70;99.90;;;;;;5081491;28;20513;-75
2021/04/20 01:17:06;;;;;;;9.10;6.20;;;5.70;99.90;;;;;;5080303;28;21002;-76
2021/04/20 01:19:32;;;;;;;11.30;5.30;;;5.60;99.90;;;;;;5080648;28;20270;-75
2021/04/20 01:21:59;;;;;;;10.47;6.23;;;5.50;99.90;;;;;;5081896;28;20180;-75
2021/04/20 01:24:26;;;;;;;7.97;6.83;;;5.50;99.90;;;;;;5081028;28;20470;-76
2021/04/20 01:26:53;;;;;;;9.03;7.40;;;5.50;99.90;;;;;;5081955;28;20434;-75
2021/04/20 01:29:21;;;;;;;10.00;6.73;;;5.50;99.90;;;;;;5074853;28;20465;-76
2021/04/20 01:31:47;;;;;;;9.90;7.37;;;5.40;99.90;;;;;;5075938;28;20442;-75
2021/04/20 01:34:14;;;;;;;11.10;7.30;;;5.40;99.90;;;;;;5079278;28;20522;-76
2021/04/20 01:36:40;;;;;;;13.93;7.13;;;5.40;99.90;;;;;;5077837;28;20497;-75
2021/04/20 01:39:08;;;;;;;11.40;8.20;;;5.30;99.90;;;;;;5082138;28;20426;-75
2021/04/20 01:41:35;;;;;;;11.83;7.10;;;5.30;99.90;;;;;;5081399;28;20456;-75
2021/04/20 01:44:00;;;;;;;11.40;7.33;;;5.40;99.90;;;;;;5080421;28;20434;-75
2021/04/20 01:46:27;;;;;;;11.43;8.00;;;5.30;99.90;;;;;;5081628;28;20784;-76
2021/04/20 01:48:53;;;;;;;11.03;6.87;;;5.30;99.90;;;;;;5078565;28;20279;-75
2021/04/20 01:51:20;;;;;;;10.57;7.73;;;5.30;99.90;;;;;;5078850;28;21041;-76
2021/04/20 01:53:51;;;;;;;10.27;7.97;;;5.20;99.90;;;;;;5079014;28;20427;-75
2021/04/20 01:56:17;;;;;;;14.87;7.90;;;5.20;99.90;;;;;;5079799;28;20541;-75
2021/04/20 01:58:45;;;;;;;22.13;9.20;;;5.30;99.90;;;;;;5095179;28;20426;-75
2021/04/20 02:01:19;;;;;;;11.37;7.80;;;5.30;99.90;;;;;;5081202;28;20434;-76
2021/04/20 02:03:48;;;;;;;17.47;8.63;;;5.30;99.90;;;;;;5080403;28;20433;-75
2021/04/20 02:06:15;;;;;;;18.33;8.60;;;5.30;99.90;;;;;;5079081;28;20439;-75
2021/04/20 02:08:41;;;;;;;13.57;8.80;;;5.30;99.90;;;;;;5079376;28;20434;-75
2021/04/20 02:11:09;;;;;;;15.07;9.03;;;5.30;99.90;;;;;;5081495;28;20511;-75
2021/04/20 02:13:36;;;;;;;11.23;7.87;;;5.30;99.90;;;;;;5081503;28;20846;-75
2021/04/20 02:16:07;;;;;;;14.80;9.57;;;5.20;99.90;;;;;;5062306;28;20959;-75
2021/04/20 02:18:38;;;;;;;13.83;9.20;;;5.20;99.90;;;;;;5080067;28;20457;-75
2021/04/20 02:21:04;;;;;;;19.17;8.07;;;5.10;99.90;;;;;;5080460;28;20423;-76
2021/04/20 02:23:30;;;;;;;14.93;8.23;;;5.00;99.90;;;;;;5076879;28;20426;-76
2021/04/20 02:26:04;;;;;;;12.17;7.60;;;4.90;99.90;;;;;;5079477;28;20433;-76
2021/04/20 02:28:31;;;;;;;13.30;7.50;;;4.90;99.90;;;;;;5080902;28;20425;-75
2021/04/20 02:31:03;;;;;;;14.37;8.43;;;4.80;99.90;;;;;;5078963;28;20456;-75
2021/04/20 02:33:30;;;;;;;9.80;8.00;;;4.80;99.90;;;;;;5061837;28;20978;-75
2021/04/20 02:35:57;;;;;;;11.33;7.77;;;4.80;99.90;;;;;;5078594;28;20437;-75
2021/04/20 02:38:24;;;;;;;10.57;7.80;;;4.80;99.90;;;;;;5079675;28;20423;-75
2021/04/20 02:40:53;;;;;;;11.43;7.23;;;4.70;99.90;;;;;;5081384;28;20426;-75
2021/04/20 02:43:20;;;;;;;10.60;7.80;;;4.70;99.90;;;;;;5080990;28;20414;-75
2021/04/20 02:45:47;;;;;;;9.10;7.40;;;4.60;99.90;;;;;;5080219;28;20474;-76
2021/04/20 02:48:13;;;;;;;10.50;7.43;;;4.60;99.90;;;;;;5081218;28;20425;-75
2021/04/20 02:50:41;;;;;;;13.70;7.90;;;4.60;99.90;;;;;;5078146;28;20962;-75
2021/04/20 02:53:06;;;;;;;11.40;7.07;;;4.50;99.90;;;;;;5080062;28;20617;-76
2021/04/20 02:55:32;;;;;;;12.97;8.30;;;4.50;99.90;;;;;;5075726;28;20431;-76
2021/04/20 02:57:59;;;;;;;15.40;7.87;;;4.40;99.90;;;;;;5079986;28;20468;-75
2021/04/20 03:00:25;;;;;;;11.47;8.97;;;4.40;99.90;;;;;;5077700;28;20653;-76
2021/04/20 03:02:57;;;;;;;7.70;6.97;;;4.40;99.90;;;;;;5080737;28;20907;-76
2021/04/20 03:05:28;;;;;;;17.73;8.13;;;4.30;99.90;;;;;;5077953;28;20500;-75
2021/04/20 03:07:54;;;;;;;13.80;9.27;;;4.30;99.90;;;;;;5078556;28;20472;-75
2021/04/20 03:10:20;;;;;;;13.30;7.70;;;4.30;99.90;;;;;;5080191;28;20430;-77
2021/04/20 03:12:46;;;;;;;13.83;7.43;;;4.20;99.90;;;;;;5080005;28;20430;-76
2021/04/20 03:15:15;;;;;;;12.40;9.00;;;4.20;99.90;;;;;;5078332;28;20609;-76
2021/04/20 03:17:44;;;;;;;11.33;7.73;;;4.10;99.90;;;;;;5079125;28;20450;-76
2021/04/20 03:20:11;;;;;;;11.23;7.23;;;4.10;99.90;;;;;;5080329;28;20910;-76
2021/04/20 03:22:38;;;;;;;17.17;8.23;;;4.00;99.90;;;;;;5080650;28;20426;-76
2021/04/20 03:25:28;;;;;;;12.87;7.83;;;3.90;99.90;;;;;;5079252;28;21243;-76
2021/04/20 03:27:56;;;;;;;11.30;8.07;;;3.90;99.90;;;;;;5079056;28;20451;-76
2021/04/20 03:30:30;;;;;;;10.90;8.20;;;3.90;99.90;;;;;;5079280;28;20461;-76
2021/04/20 03:33:21;;;;;;;11.10;8.07;;;3.80;99.90;;;;;;5079479;28;20479;-76
2021/04/20 03:35:50;;;;;;;12.10;8.57;;;3.80;99.90;;;;;;5079805;28;20454;-76
2021/04/20 03:38:23;;;;;;;12.17;7.70;;;3.80;99.90;;;;;;5080898;28;20759;-76
2021/04/20 03:41:02;;;;;;;12.97;7.03;;;3.80;99.90;;;;;;5080722;28;20425;-76
2021/04/20 03:43:32;;;;;;;16.57;8.70;;;3.70;99.90;;;;;;5076758;28;20426;-77
2021/04/20 03:46:17;;;;;;;12.13;8.33;;;3.60;99.90;;;;;;5081823;28;20793;-76
2021/04/20 03:48:49;;;;;;;13.40;8.30;;;3.40;99.90;;;;;;5082237;28;20421;-76
2021/04/20 03:51:18;;;;;;;17.73;8.60;;;3.40;99.90;;;;;;5083789;28;20545;-76
2021/04/20 03:53:48;;;;;;;10.90;7.70;;;3.30;99.90;;;;;;5081723;28;20445;-76
2021/04/20 03:56:15;;;;;;;9.80;7.53;;;3.40;99.90;;;;;;5082030;28;20450;-76
2021/04/20 03:58:43;;;;;;;9.97;8.90;;;3.40;99.90;;;;;;5080989;28;20547;-76
2021/04/20 04:01:11;;;;;;;14.57;8.90;;;3.40;99.90;;;;;;5082250;28;20441;-76
2021/04/20 04:03:37;;;;;;;13.33;8.90;;;3.40;99.90;;;;;;5082160;28;20444;-76
2021/04/20 04:06:06;;;;;;;11.43;7.97;;;3.40;99.90;;;;;;5083893;28;20808;-76
2021/04/20 04:08:35;;;;;;;9.77;8.50;;;3.30;99.90;;;;;;5082985;28;20425;-76
2021/04/20 04:11:02;;;;;;;15.03;7.77;;;3.30;99.90;;;;;;5084535;28;20906;-76
2021/04/20 04:13:29;;;;;;;10.70;8.20;;;3.30;99.90;;;;;;5082688;28;20824;-76
2021/04/20 04:16:02;;;;;;;15.07;8.30;;;3.30;99.90;;;;;;5080600;28;20441;-77
2021/04/20 04:18:30;;;;;;;17.77;9.67;;;3.30;99.90;;;;;;5083893;28;20810;-76
2021/04/20 04:20:59;;;;;;;15.87;9.70;;;3.30;99.90;;;;;;5083409;28;20436;-76
2021/04/20 04:23:27;;;;;;;15.90;9.73;;;3.20;99.90;;;;;;5080501;28;20822;-76
2021/04/20 04:26:03;;;;;;;17.13;8.63;;;3.20;99.90;;;;;;5080587;28;20425;-75
2021/04/20 04:28:31;;;;;;;13.07;7.73;;;3.20;99.90;;;;;;5083871;28;20429;-76
2021/04/20 04:30:58;;;;;;;12.83;9.07;;;3.20;99.90;;;;;;5080611;28;20457;-76
2021/04/20 04:33:25;;;;;;;14.40;8.47;;;3.20;99.90;;;;;;5079393;28;20422;-76
2021/04/20 04:35:52;;;;;;;12.30;8.27;;;3.20;99.90;;;;;;5083053;28;20495;-76
2021/04/20 04:38:19;;;;;;;14.50;9.53;;;3.20;99.90;;;;;;5082090;28;20434;-75
2021/04/20 04:40:46;;;;;;;17.50;10.13;;;3.20;99.90;;;;;;5078264;28;20437;-75
2021/04/20 04:43:12;;;;;;;17.10;9.87;;;3.20;99.90;;;;;;5080212;28;20763;-75
2021/04/20 04:45:38;;;;;;;14.70;8.33;;;3.20;99.90;;;;;;5078504;28;20469;-76
2021/04/20 04:48:07;;;;;;;13.03;8.80;;;3.20;99.90;;;;;;5079284;28;20465;-76
2021/04/20 04:50:33;;;;;;;12.30;8.70;;;3.10;99.90;;;;;;5079692;28;20272;-76
2021/04/20 04:52:59;;;;;;;11.03;8.23;;;3.00;99.90;;;;;;5079066;28;20457;-75
2021/04/20 04:55:25;;;;;;;15.10;9.07;;;3.00;99.90;;;;;;5077881;28;20441;-75
2021/04/20 04:57:52;;;;;;;13.80;8.83;;;3.00;99.90;;;;;;5071610;28;20480;-76
2021/04/20 05:00:19;;;;;;;9.97;8.50;;;3.00;99.90;;;;;;5069865;28;20709;-76
2021/04/20 05:02:45;;;;;;;9.50;8.27;;;3.10;99.90;;;;;;5077748;28;20701;-75
2021/04/20 05:05:14;;;;;;;12.63;8.87;;;3.20;99.90;;;;;;5079664;28;20899;-75
2021/04/20 05:07:41;;;;;;;10.00;7.90;;;3.30;99.90;;;;;;5075523;28;20471;-75
2021/04/20 05:10:09;;;;;;;13.03;9.10;;;3.30;99.90;;;;;;5079096;28;20506;-76
2021/04/20 05:12:35;;;;;;;15.03;8.87;;;3.40;99.90;;;;;;5078704;28;20434;-75
2021/04/20 05:15:13;;;;;;;15.00;8.23;;;3.50;99.90;;;;;;5079003;28;20441;-75
2021/04/20 05:17:43;;;;;;;13.13;8.90;;;3.50;99.90;;;;;;5077132;28;20918;-75
2021/04/20 05:20:15;;;;;;;14.43;9.87;;;3.60;99.90;;;;;;5079401;28;20919;-75
2021/04/20 05:22:41;;;;;;;12.87;9.30;;;3.70;99.90;;;;;;5077436;28;20445;-76
2021/04/20 05:25:09;;;;;;;17.00;9.60;;;3.80;99.90;;;;;;5072279;28;20443;-76
2021/04/20 05:27:34;;;;;;;16.03;9.30;;;3.90;99.90;;;;;;5073262;28;21213;-76
2021/04/20 05:30:01;;;;;;;11.53;8.80;;;4.00;99.90;;;;;;5074552;28;20459;-76
2021/04/20 05:32:27;;;;;;;14.83;10.23;;;4.10;99.90;;;;;;5075313;28;20434;-76
2021/04/20 05:34:52;;;;;;;10.80;8.20;;;4.10;99.90;;;;;;5076845;28;20914;-76
2021/04/20 05:37:42;;;;;;;10.93;7.50;;;4.30;99.90;;;;;;5072284;28;20472;-76
2021/04/20 05:40:15;;;;;;;12.63;8.23;;;4.40;99.90;;;;;;5071031;28;20187;-75
2021/04/20 05:42:41;;;;;;;11.00;8.37;;;4.60;99.90;;;;;;5073946;28;20441;-76
2021/04/20 05:45:09;;;;;;;13.27;8.60;;;4.90;99.90;;;;;;5071924;28;20424;-76
2021/04/20 05:47:41;;;;;;;16.43;8.50;;;5.00;99.90;;;;;;5072147;28;20430;-76
2021/04/20 05:50:10;;;;;;;11.63;8.07;;;5.00;99.90;;;;;;5062097;28;20427;-75
2021/04/20 05:52:37;;;;;;;11.03;7.40;;;5.20;99.90;;;;;;5077931;28;20455;-76
2021/04/20 05:55:05;;;;;;;11.80;7.53;;;5.30;99.90;;;;;;5078200;28;20480;-76
2021/04/20 05:57:30;;;;;;;12.17;7.57;;;5.50;99.90;;;;;;5078836;28;20501;-76
2021/04/20 05:59:57;;;;;;;10.27;7.77;;;5.60;99.90;;;;;;5076165;28;20468;-75
2021/04/20 06:02:29;;;;;;;16.83;7.77;;;5.60;99.90;;;;;;5079330;28;20311;-76
2021/04/20 06:04:58;;;;;;;15.23;7.43;;;5.70;99.90;;;;;;5074162;28;21089;-76
2021/04/20 06:07:24;;;;;;;9.23;7.20;;;5.90;99.90;;;;;;5077274;28;20787;-76
2021/04/20 06:09:51;;;;;;;12.63;7.70;;;6.00;99.90;;;;;;5071510;28;20964;-75
2021/04/20 06:12:16;;;;;;;11.60;7.40;;;6.10;99.90;;;;;;5075335;28;20447;-76
2021/04/20 06:14:43;;;;;;;9.60;8.00;;;6.20;99.90;;;;;;5073692;28;21276;-76
2021/04/20 06:17:12;;;;;;;10.60;6.03;;;6.30;99.90;;;;;;5077035;28;20204;-75
2021/04/20 06:19:38;;;;;;;17.50;6.50;;;6.40;99.90;;;;;;5076740;28;20423;-75
2021/04/20 06:22:08;;;;;;;7.93;6.73;;;6.60;99.90;;;;;;5078254;28;20439;-75
2021/04/20 06:24:34;;;;;;;6.93;5.70;;;6.60;99.90;;;;;;5077027;28;20505;-75
2021/04/20 06:27:01;;;;;;;13.67;6.00;;;6.60;99.90;;;;;;5079460;28;20446;-75
2021/04/20 06:29:27;;;;;;;7.30;5.97;;;6.70;99.90;;;;;;5078706;28;20439;-76
2021/04/20 06:31:54;;;;;;;17.37;7.10;;;6.70;99.90;;;;;;5078149;28;20436;-75
2021/04/20 06:34:22;;;;;;;14.93;7.30;;;6.80;99.90;;;;;;5076807;28;20534;-75
2021/04/20 06:36:48;;;;;;;13.77;6.00;;;6.80;99.90;;;;;;5078272;28;20458;-75
2021/04/20 06:39:14;;;;;;;12.10;6.07;;;6.90;99.90;;;;;;5076704;28;20418;-74
2021/04/20 06:41:41;;;;;;;7.33;5.57;;;7.00;99.90;;;;;;5073229;28;20905;-76
2021/04/20 06:44:15;;;;;;;9.93;6.77;;;7.00;99.90;;;;;;5077787;28;20473;-76
2021/04/20 06:46:51;;;;;;;14.57;7.10;;;7.00;99.90;;;;;;5076994;28;20430;-76
2021/04/20 06:49:23;;;;;;;8.97;5.90;;;7.20;99.90;;;;;;5078479;28;20421;-76
2021/04/20 06:51:52;;;;;;;7.33;5.30;;;7.40;99.90;;;;;;5078263;28;20516;-76
2021/04/20 06:54:29;;;;;;;8.30;5.73;;;7.40;99.90;;;;;;5079069;28;20461;-76
2021/04/20 06:57:00;;;;;;;8.13;6.60;;;7.50;99.90;;;;;;5077085;28;20530;-76
2021/04/20 06:59:26;;;;;;;13.13;5.70;;;7.60;99.90;;;;;;5080388;28;20437;-75
2021/04/20 07:02:20;;;;;;;7.90;5.17;;;7.70;99.90;;;;;;5080856;28;20423;-75
2021/04/20 07:04:50;;;;;;;7.20;5.23;;;7.80;99.90;;;;;;5080453;28;20264;-75
2021/04/20 07:07:34;;;;;;;8.17;5.17;;;7.90;99.90;;;;;;5079772;28;20780;-75
2021/04/20 07:10:18;;;;;;;8.60;5.60;;;7.90;99.90;;;;;;5062120;28;20432;-76
2021/04/20 07:12:48;;;;;;;8.30;5.03;;;8.00;99.90;;;;;;5073533;28;20431;-75
2021/04/20 07:15:24;;;;;;;8.40;5.60;;;8.10;99.90;;;;;;5076545;28;20455;-75
2021/04/20 07:18:05;;;;;;;10.03;4.77;;;8.30;99.90;;;;;;5066051;28;20457;-76
2021/04/20 07:20:31;;;;;;;11.63;5.30;;;8.50;99.90;;;;;;5074289;28;20429;-76
2021/04/20 07:23:26;;;;;;;8.80;5.47;;;8.60;99.90;;;;;;5076777;28;20528;-76
2021/04/20 07:26:11;;;;;;;5.70;4.27;;;8.60;99.90;;;;;;5079337;28;20184;-75
2021/04/20 07:28:54;;;;;;;10.23;4.97;;;8.70;99.90;;;;;;5083225;28;20517;-75
2021/04/20 07:32:01;;;;;;;6.00;4.57;;;8.80;99.90;;;;;;5080318;28;20762;-75
2021/04/20 07:34:40;;;;;;;5.27;4.77;;;8.90;99.90;;;;;;5081290;28;20437;-76
2021/04/20 07:37:34;;;;;;;6.13;4.27;;;9.00;99.90;;;;;;5078658;28;20464;-77
2021/04/20 07:40:14;;;;;;;8.27;5.10;;;9.10;99.90;;;;;;5079947;28;20430;-75
2021/04/20 07:42:49;;;;;;;7.97;5.10;;;9.20;99.90;;;;;;5080742;28;20429;-74
2021/04/20 07:45:33;;;;;;;6.10;3.90;;;9.30;99.90;;;;;;5063535;28;20425;-75
2021/04/20 07:48:10;;;;;;;5.53;5.00;;;9.30;99.90;;;;;;5077276;28;20433;-76
2021/04/20 07:50:46;;;;;;;8.87;5.10;;;9.30;99.90;;;;;;5080768;28;20444;-76
2021/04/20 07:53:11;;;;;;;4.93;3.77;;;9.40;99.90;;;;;;5069386;28;23243;-76
2021/04/20 07:55:56;;;;;;;6.67;4.70;;;9.50;99.90;;;;;;5078924;28;20445;-76
2021/04/20 07:58:24;;;;;;;8.27;4.30;;;9.60;99.90;;;;;;5077787;28;20630;-76
2021/04/20 08:01:02;;;;;;;4.60;3.93;;;9.70;99.90;;;;;;5078317;28;20433;-76
2021/04/20 08:03:41;;;;;;;4.60;4.13;;;9.90;99.90;;;;;;5084010;28;20418;-76
2021/04/20 08:06:16;;;;;;;7.03;4.40;;;9.90;99.90;;;;;;5055828;28;20434;-76
2021/04/20 08:09:25;;;;;;;7.40;4.73;;;10.00;99.90;;;;;;5080548;28;20433;-76
2021/04/20 08:11:56;;;;;;;7.00;4.37;;;10.10;99.90;;;;;;5070119;28;20434;-76
2021/04/20 08:14:36;;;;;;;5.50;4.50;;;10.30;99.90;;;;;;5078590;28;20837;-76
2021/04/20 08:17:47;;;;;;;5.23;3.63;;;10.50;99.90;;;;;;5074711;28;20490;-76
2021/04/20 08:20:16;;;;;;;5.00;4.50;;;10.50;99.90;;;;;;5080817;28;20434;-76
2021/04/20 08:22:44;;;;;;;6.97;4.53;;;10.60;99.90;;;;;;5062019;28;20422;-76
2021/04/20 08:25:24;;;;;;;5.00;3.80;;;10.70;99.90;;;;;;5077901;28;20419;-76
2021/04/20 08:28:05;;;;;;;6.97;4.40;;;10.90;99.90;;;;;;5077905;28;20523;-76
2021/04/20 08:31:07;;;;;;;8.83;4.50;;;11.00;99.90;;;;;;5070181;28;20556;-76
2021/04/20 08:33:37;;;;;;;4.57;3.77;;;11.10;99.90;;;;;;5072804;28;20804;-76
2021/04/20 08:36:21;;;;;;;4.60;3.80;;;11.10;99.90;;;;;;5076916;28;20440;-76
2021/04/20 08:39:08;;;;;;;6.20;4.20;;;11.10;99.90;;;;;;5075636;28;20419;-76
2021/04/20 08:41:43;;;;;;;6.43;3.80;;;11.10;99.90;;;;;;5079681;28;20835;-76
2021/04/20 08:44:30;;;;;;;5.50;4.70;;;11.30;99.90;;;;;;5076408;28;20426;-76
2021/04/20 08:47:04;;;;;;;4.23;3.70;;;11.40;99.90;;;;;;5061302;28;20507;-76
2021/04/20 08:50:00;;;;;;;5.83;4.40;;;11.60;99.90;;;;;;5079710;28;20426;-76
2021/04/20 08:52:51;;;;;;;8.20;3.90;;;11.60;99.90;;;;;;5079725;28;20437;-76
2021/04/20 08:55:38;;;;;;;3.77;3.33;;;11.70;99.90;;;;;;5077590;28;20430;-76
2021/04/20 08:58:14;;;;;;;5.90;3.97;;;11.70;99.90;;;;;;5077841;28;20465;-76
2021/04/20 09:00:51;;;;;;;8.63;4.20;;;11.80;99.90;;;;;;5077462;28;20896;-76
2021/04/20 09:03:37;;;;;;;5.27;4.07;;;11.90;99.90;;;;;;5077941;28;20513;-75
2021/04/20 09:06:07;;;;;;;8.90;4.13;;;12.10;99.90;;;;;;5077685;28;20855;-76
2021/04/20 09:08:44;;;;;;;4.57;4.20;;;12.20;99.90;;;;;;5080675;28;20426;-75
2021/04/20 09:11:27;;;;;;;7.50;3.43;;;12.30;99.90;;;;;;5077713;28;20437;-76
2021/04/20 09:14:08;;;;;;;7.33;4.67;;;12.40;99.90;;;;;;5076619;28;20413;-76
2021/04/20 09:16:47;;;;;;;4.17;3.87;;;12.60;99.90;;;;;;5079643;28;20455;-76
2021/04/20 09:19:23;;;;;;;6.00;4.10;;;12.70;99.90;;;;;;5064314;28;20468;-76
2021/04/20 09:21:58;;;;;;;4.60;3.73;;;12.70;99.90;;;;;;5076760;28;20423;-76
2021/04/20 09:24:29;;;;;;;4.10;3.80;;;12.80;99.90;;;;;;5079015;28;20413;-76
2021/04/20 09:27:10;;;;;;;6.70;3.60;;;13.00;99.90;;;;;;5078716;28;20495;-76
2021/04/20 09:29:49;;;;;;;3.40;3.10;;;13.20;99.90;;;;;;5077279;28;20923;-76
2021/04/20 09:32:21;;;;;;;6.27;4.10;;;13.30;99.90;;;;;;5077395;28;20484;-76
2021/04/20 09:34:50;;;;;;;4.80;3.47;;;13.40;99.90;;;;;;5075815;28;20427;-76
2021/04/20 09:37:20;;;;;;;4.30;3.90;;;13.50;99.90;;;;;;5078225;28;20801;-75
2021/04/20 09:39:51;;;;;;;7.30;4.07;;;13.70;99.90;;;;;;5077910;28;20422;-76
2021/04/20 09:42:19;;;;;;;7.70;4.23;;;13.80;99.90;;;;;;5079761;28;20428;-77
2021/04/20 09:45:05;;;;;;;6.50;4.10;;;14.10;99.90;;;;;;5077206;28;20508;-76
2021/04/20 09:48:07;;;;;;;4.37;3.30;;;14.00;99.90;;;;;;5078000;28;20422;-76
2021/04/20 09:51:00;;;;;;;7.33;4.37;;;14.10;99.90;;;;;;5079290;28;20484;-76
2021/04/20 09:53:45;;;;;;;4.20;3.20;;;14.10;99.90;;;;;;5078431;28;20996;-76
2021/04/20 09:56:41;;;;;;;6.23;3.70;;;14.30;99.90;;;;;;5076781;28;20439;-76
2021/04/20 09:59:19;;;;;;;5.70;3.30;;;14.40;99.90;;;;;;5077061;28;20504;-76
2021/04/20 10:01:49;;;;;;;6.10;3.80;;;14.50;99.90;;;;;;5076074;28;20894;-75
2021/04/20 10:04:53;;;;;;;5.07;3.57;;;14.40;99.90;;;;;;5075100;28;20419;-75
2021/04/20 10:07:18;;;;;;;6.10;3.50;;;14.60;99.90;;;;;;5077658;28;20454;-75
2021/04/20 10:09:50;;;;;;;3.00;2.80;;;14.70;99.90;;;;;;5079320;28;20843;-75
2021/04/20 10:12:30;;;;;;;4.43;4.03;;;15.00;99.90;;;;;;5075773;28;20546;-76
2021/04/20 10:15:09;;;;;;;3.97;3.30;;;15.20;99.90;;;;;;5080094;28;20430;-75
2021/04/20 10:17:53;;;;;;;4.10;3.20;;;15.20;99.90;;;;;;5075843;28;20439;-76
2021/04/20 10:20:26;;;;;;;5.07;4.10;;;15.30;99.90;;;;;;5076530;28;20438;-76
2021/04/20 10:23:04;;;;;;;5.83;3.07;;;15.40;99.10;;;;;;5069702;28;20514;-75
2021/04/20 10:25:59;;;;;;;3.47;3.13;;;15.60;99.90;;;;;;5077021;28;20421;-75
2021/04/20 10:28:34;;;;;;;5.03;3.20;;;15.80;99.90;;;;;;5077076;28;20446;-75
2021/04/20 10:31:07;;;;;;;4.40;2.43;;;15.90;98.50;;;;;;5078761;28;20445;-75
2021/04/20 10:33:34;;;;;;;3.10;2.80;;;16.00;98.90;;;;;;5080165;28;20457;-75
2021/04/20 10:36:01;;;;;;;3.77;2.80;;;16.10;97.00;;;;;;5074548;28;20927;-75
2021/04/20 10:38:33;;;;;;;3.03;2.63;;;16.30;96.40;;;;;;5076376;28;20430;-76
2021/04/20 10:41:33;;;;;;;4.13;2.70;;;16.50;96.10;;;;;;5079256;28;20768;-76
2021/04/20 10:43:59;;;;;;;4.50;2.60;;;16.50;99.00;;;;;;5076900;28;20429;-76
2021/04/20 10:46:29;;;;;;;10.40;3.30;;;16.60;97.80;;;;;;5076173;28;20439;-75
2021/04/20 10:48:57;;;;;;;3.40;2.70;;;16.60;97.30;;;;;;5070572;28;20419;-74
2021/04/20 10:51:38;;;;;;;4.23;3.10;;;16.70;97.20;;;;;;5065778;28;20462;-75
2021/04/20 10:54:07;;;;;;;3.63;2.90;;;16.70;96.20;;;;;;5073517;28;20427;-75
2021/04/20 10:56:33;;;;;;;4.70;2.40;;;16.80;97.70;;;;;;5078498;28;20454;-76
2021/04/20 10:59:03;;;;;;;4.67;3.30;;;16.80;94.80;;;;;;5078602;28;20967;-75
2021/04/20 11:01:29;;;;;;;2.73;2.53;;;16.90;96.70;;;;;;5078000;28;20430;-75
2021/04/20 11:04:01;;;;;;;2.80;2.60;;;17.10;95.40;;;;;;5075454;28;20504;-75
2021/04/20 11:07:04;;;;;;;2.87;2.67;;;17.30;95.60;;;;;;5077454;28;20546;-75
2021/04/20 11:09:34;;;;;;;2.30;2.20;;;17.40;93.80;;;;;;5060029;28;20431;-76
2021/04/20 11:12:11;;;;;;;3.87;2.60;;;17.60;97.10;;;;;;5072269;28;20444;-76
2021/04/20 11:14:39;;;;;;;3.00;2.47;;;17.50;94.30;;;;;;5074267;28;20522;-76
2021/04/20 11:17:17;;;;;;;8.47;3.17;;;17.50;93.80;;;;;;5079735;28;20515;-76
2021/04/20 11:19:46;;;;;;;3.20;2.47;;;17.50;92.80;;;;;;5070105;28;20431;-76
2021/04/20 11:22:16;;;;;;;5.10;2.93;;;17.30;92.80;;;;;;5076660;28;20455;-76
2021/04/20 11:24:49;;;;;;;2.93;2.70;;;17.30;93.10;;;;;;5073605;28;20434;-77
2021/04/20 11:27:19;;;;;;;2.57;2.10;;;17.40;92.00;;;;;;5074483;28;20450;-77
2021/04/20 11:30:06;;;;;;;4.17;3.20;;;17.50;93.50;;;;;;5076387;28;20510;-76
2021/04/20 11:32:33;;;;;;;3.17;2.87;;;17.60;92.70;;;;;;5076513;28;20427;-77
2021/04/20 11:35:12;;;;;;;7.23;3.10;;;17.80;93.20;;;;;;5073908;28;20430;-76
2021/04/20 11:37:38;;;;;;;5.10;2.80;;;17.80;92.80;;;;;;5073521;28;20895;-76
2021/04/20 11:40:12;;;;;;;3.07;2.70;;;18.10;93.50;;;;;;5072452;28;20438;-76
2021/04/20 11:42:44;;;;;;;3.93;2.67;;;18.10;92.20;;;;;;5074751;28;20430;-76
2021/04/20 11:45:14;;;;;;;3.50;2.63;;;18.10;91.90;;;;;;5075566;28;20517;-77
2021/04/20 11:47:58;;;;;;;3.20;2.63;;;18.00;91.60;;;;;;5073155;28;20429;-77
2021/04/20 11:50:27;;;;;;;2.93;2.40;;;18.00;90.00;;;;;;5073554;28;20422;-76
2021/04/20 11:53:03;;;;;;;2.57;2.37;;;18.10;90.80;;;;;;5074765;28;20429;-78
2021/04/20 11:55:42;;;;;;;2.57;2.20;;;18.20;91.20;;;;;;5072181;28;20581;-78
2021/04/20 11:58:22;;;;;;;2.90;2.70;;;18.40;90.40;;;;;;5077393;28;20452;-78
2021/04/20 12:00:50;;;;;;;2.67;2.47;;;18.50;92.10;;;;;;5071291;28;20859;-77
2021/04/20 12:03:18;;;;;;;5.07;2.50;;;18.50;91.00;;;;;;5080212;28;20437;-77
2021/04/20 12:05:47;;;;;;;5.40;3.13;;;18.60;91.10;;;;;;5077611;28;20430;-77
2021/04/20 12:08:36;;;;;;;3.73;2.77;;;18.70;91.00;;;;;;5079184;28;20423;-76
2021/04/20 12:11:06;;;;;;;2.37;2.17;;;18.70;90.10;;;;;;5078537;28;20422;-76
2021/04/20 12:13:35;;;;;;;4.23;2.80;;;18.90;93.00;;;;;;5079621;28;20891;-77
2021/04/20 12:16:06;;;;;;;3.53;2.50;;;19.00;89.10;;;;;;5076671;28;20463;-77
2021/04/20 12:18:32;;;;;;;4.33;2.83;;;18.90;90.40;;;;;;5078891;28;20759;-78
2021/04/20 12:21:06;;;;;;;2.97;2.70;;;19.00;93.40;;;;;;5079612;28;20488;-79
2021/04/20 12:23:38;;;;;;;4.60;2.70;;;19.30;91.00;;;;;;5079003;28;20429;-76
2021/04/20 12:26:06;;;;;;;5.23;2.80;;;19.20;90.00;;;;;;5077537;28;20412;-76
2021/04/20 12:28:35;;;;;;;2.93;2.50;;;19.30;91.30;;;;;;5076704;28;20470;-77
2021/04/20 12:31:01;;;;;;;3.40;2.50;;;19.30;86.60;;;;;;5081418;28;21243;-78
2021/04/20 12:33:32;;;;;;;5.40;3.27;;;19.50;90.30;;;;;;5080476;28;20509;-77
2021/04/20 12:36:00;;;;;;;3.80;2.37;;;19.60;90.10;;;;;;5080668;28;20180;-77
2021/04/20 12:38:29;;;;;;;5.37;2.30;;;19.80;90.40;;;;;;5084562;28;20518;-77
2021/04/20 12:41:00;;;;;;;3.90;2.50;;;19.70;90.90;;;;;;5083720;28;21773;-77
2021/04/20 12:43:27;;;;;;;3.80;2.47;;;19.40;82.50;;;;;;5083524;28;20510;-77
2021/04/20 12:46:04;;;;;;;3.07;2.60;;;19.40;86.40;;;;;;5074407;28;20425;-76
2021/04/20 12:48:31;;;;;;;3.03;2.60;;;19.60;91.00;;;;;;5077134;28;20534;-76
2021/04/20 12:50:58;;;;;;;5.90;2.80;;;19.90;89.50;;;;;;5079228;28;20859;-76
2021/04/20 12:53:27;;;;;;;5.50;3.40;;;20.20;88.10;;;;;;5081260;28;20423;-76
2021/04/20 12:55:55;;;;;;;5.00;3.13;;;20.00;84.60;;;;;;5077660;28;20460;-76
2021/04/20 12:58:24;;;;;;;3.10;2.90;;;20.10;83.20;;;;;;5076682;28;20453;-76
2021/04/20 13:00:58;;;;;;;4.47;3.10;;;20.10;82.10;;;;;;5079183;28;20458;-76
2021/04/20 13:03:25;;;;;;;3.33;2.93;;;19.90;86.90;;;;;;5080840;28;20411;-76
2021/04/20 13:05:52;;;;;;;3.00;2.80;;;20.00;83.80;;;;;;5078868;28;20425;-76
2021/04/20 13:08:21;;;;;;;3.47;3.17;;;20.20;82.20;;;;;;5076517;28;20481;-76
2021/04/20 13:10:59;;;;;;;2.80;2.40;;;20.30;81.20;;;;;;5071661;28;20419;-76
2021/04/20 13:13:28;;;;;;;3.00;2.80;;;20.30;82.30;;;;;;5073415;28;20425;-77